createdAt,value
2022-12-09T00:01:23.141Z,27.95
2022-12-09T00:06:28.298Z,28.15
2022-12-09T00:11:30.807Z,23.25
2022-12-09T00:16:33.289Z,26.83
2022-12-09T00:21:35.868Z,27.35
2022-12-09T00:26:38.936Z,20.63
2022-12-09T00:31:41.418Z,21.92
2022-12-09T00:36:43.792Z,24.42
2022-12-09T00:41:46.246Z,24.42
2022-12-09T00:46:48.927Z,26.25
2022-12-09T00:51:51.459Z,24.58
2022-12-09T00:56:53.995Z,26.30
2022-12-09T01:01:56.395Z,22.77
2022-12-09T01:06:58.930Z,26.88
2022-12-09T01:12:01.207Z,23.35
2022-12-09T01:17:03.887Z,27.50
2022-12-09T01:22:07.138Z,24.52
2022-12-09T01:27:09.644Z,25.17
2022-12-09T01:32:12.504Z,24.00
2022-12-09T01:37:15.067Z,22.98
2022-12-09T01:42:23.336Z,24.27
2022-12-09T01:47:25.730Z,22.95
2022-12-09T01:52:28.128Z,26.38
2022-12-09T01:57:30.785Z,28.38
2022-12-09T02:02:37.621Z,26.63
2022-12-09T02:07:40.393Z,27.55
2022-12-09T02:12:51.289Z,26.83
2022-12-09T02:18:00.481Z,27.33
2022-12-09T02:23:43.564Z,21.40
2022-12-09T02:29:04.257Z,22.50
2022-12-09T02:34:18.379Z,29.27
2022-12-09T02:39:31.164Z,23.73
2022-12-09T02:44:35.933Z,23.30
2022-12-09T02:49:41.948Z,30.23
2022-12-09T02:54:44.742Z,30.13
2022-12-09T02:59:47.764Z,28.52
2022-12-09T03:05:04.814Z,27.08
2022-12-09T03:10:13.037Z,32.88
2022-12-09T03:15:23.619Z,32.03
2022-12-09T03:20:31.071Z,29.67
2022-12-09T03:25:43.170Z,25.58
2022-12-09T03:30:47.155Z,53.35
2022-12-09T03:35:58.715Z,32.92
2022-12-09T03:41:23.062Z,34.55
2022-12-09T03:46:26.303Z,31.77
2022-12-09T03:51:37.084Z,27.45
2022-12-09T03:56:44.740Z,32.28
2022-12-09T04:01:47.793Z,30.23
2022-12-09T04:06:53.653Z,40.70
2022-12-09T04:11:56.189Z,35.85
2022-12-09T04:16:58.609Z,37.92
2022-12-09T04:22:01.323Z,38.95
2022-12-09T04:27:04.226Z,36.05
2022-12-09T04:32:06.956Z,29.23
2022-12-09T04:37:09.512Z,27.83
2022-12-09T04:42:12.191Z,27.88
2022-12-09T04:47:14.847Z,30.00
2022-12-09T04:52:20.663Z,31.02
2022-12-09T04:57:23.442Z,29.65
2022-12-09T05:02:26.765Z,46.70
2022-12-09T05:07:32.055Z,45.78
2022-12-09T05:12:34.947Z,46.83
2022-12-09T05:17:37.368Z,51.55
2022-12-09T05:22:40.102Z,40.15
2022-12-09T05:27:45.553Z,49.28
2022-12-09T05:32:48.184Z,63.03
2022-12-09T05:37:50.670Z,48.97
2022-12-09T05:42:53.034Z,34.50
2022-12-09T05:47:55.630Z,35.17
2022-12-09T05:52:58.152Z,47.30
2022-12-09T05:58:01.499Z,44.50
2022-12-09T06:03:04.301Z,44.58
2022-12-09T06:08:07.891Z,48.38
2022-12-09T06:13:10.500Z,49.72
2022-12-09T06:18:13.119Z,34.60
2022-12-09T06:23:15.995Z,42.25
2022-12-09T06:28:19.848Z,38.45
2022-12-09T06:33:52.884Z,42.47
2022-12-09T06:38:45.565Z,38.25
2022-12-09T06:43:48.239Z,52.35
2022-12-09T06:48:51.176Z,47.45
2022-12-09T06:53:54.619Z,62.05
2022-12-09T06:58:57.445Z,48.80
2022-12-09T07:04:00.310Z,74.22
2022-12-09T07:09:06.679Z,58.17
2022-12-09T07:14:10.713Z,54.65
2022-12-09T07:19:19.087Z,54.20
2022-12-09T07:24:22.047Z,58.28
2022-12-09T07:29:24.695Z,58.95
2022-12-09T07:34:27.483Z,55.03
2022-12-09T07:39:30.416Z,53.83
2022-12-09T07:44:33.134Z,56.88
2022-12-09T07:49:35.748Z,55.30
2022-12-09T07:54:38.365Z,56.88
2022-12-09T07:59:40.873Z,49.67
2022-12-09T08:04:43.464Z,48.42
2022-12-09T08:09:46.451Z,46.42
2022-12-09T08:14:49.386Z,36.92
2022-12-09T08:19:53.178Z,39.92
2022-12-09T08:24:55.848Z,37.92
2022-12-09T08:29:58.493Z,41.10
2022-12-09T08:35:01.225Z,31.00
2022-12-09T08:40:04.971Z,39.70
2022-12-09T08:45:07.929Z,30.83
2022-12-09T08:50:11.416Z,29.20
2022-12-09T08:55:14.001Z,45.65
2022-12-09T09:00:17.487Z,39.70
2022-12-09T09:05:20.010Z,37.47
2022-12-09T09:10:22.701Z,42.95
2022-12-09T09:15:25.803Z,40.75
2022-12-09T09:20:28.360Z,43.58
2022-12-09T09:25:31.323Z,39.88
2022-12-09T09:30:34.052Z,40.90
2022-12-09T09:35:37.940Z,46.05
2022-12-09T09:40:43.753Z,52.35
2022-12-09T09:45:47.187Z,61.08
2022-12-09T09:51:02.282Z,57.95
2022-12-09T09:56:43.941Z,63.45
2022-12-09T10:02:13.814Z,62.17
2022-12-09T10:07:42.924Z,52.78
2022-12-09T10:13:17.716Z,50.60
2022-12-09T10:18:33.694Z,55.97
2022-12-09T10:23:36.259Z,55.67
2022-12-09T10:28:47.067Z,60.10
2022-12-09T10:33:50.525Z,56.50
2022-12-09T10:38:53.561Z,51.05
2022-12-09T10:44:23.929Z,44.47
2022-12-09T10:49:27.104Z,50.13
2022-12-09T10:54:44.221Z,39.67
2022-12-09T11:00:02.192Z,44.95
2022-12-09T11:05:29.839Z,47.88
2022-12-09T11:10:33.386Z,37.08
2022-12-09T11:15:42.076Z,45.70
2022-12-09T11:20:59.997Z,45.33
2022-12-09T11:26:04.744Z,38.78
2022-12-09T11:31:29.896Z,41.78
2022-12-09T11:36:40.142Z,46.03
2022-12-09T11:42:17.191Z,49.15
2022-12-09T11:48:22.560Z,34.92
2022-12-09T11:53:24.676Z,34.30
2022-12-09T11:58:46.720Z,31.30
2022-12-09T12:03:53.135Z,40.17
2022-12-09T12:09:04.819Z,42.45
2022-12-09T12:14:29.040Z,26.65
2022-12-09T12:19:36.712Z,31.98
2022-12-09T12:25:09.900Z,42.35
2022-12-09T12:30:33.069Z,24.88
2022-12-09T12:35:47.532Z,28.53
2022-12-09T12:40:53.997Z,31.05
2022-12-09T12:46:21.734Z,44.75
2022-12-09T12:51:26.936Z,50.72
2022-12-09T12:56:43.137Z,38.85
2022-12-09T13:02:01.272Z,40.60
2022-12-09T13:07:24.845Z,29.35
2022-12-09T13:12:54.258Z,39.05
2022-12-09T13:17:57.124Z,41.75
2022-12-09T13:23:28.730Z,36.97
2022-12-09T13:28:47.972Z,48.60
2022-12-09T13:33:52.749Z,50.83
2022-12-09T13:38:56.289Z,47.63
2022-12-09T13:44:11.397Z,42.88
2022-12-09T13:49:24.511Z,42.72
2022-12-09T13:54:28.680Z,53.75
2022-12-09T13:59:30.952Z,44.45
2022-12-09T14:04:38.298Z,53.10
2022-12-09T14:09:54.950Z,50.10
2022-12-09T14:15:23.440Z,62.35
2022-12-09T14:20:31.738Z,31.08
2022-12-09T14:25:36.759Z,36.83
2022-12-09T14:31:06.549Z,23.42
2022-12-09T14:36:14.121Z,33.63
2022-12-09T14:41:26.413Z,29.55
2022-12-09T14:46:40.400Z,27.73
2022-12-09T14:51:55.872Z,34.38
2022-12-09T14:57:01.035Z,40.17
2022-12-09T15:02:19.301Z,30.90
2022-12-09T15:07:29.041Z,40.50
2022-12-09T15:12:38.744Z,36.47
2022-12-09T15:17:46.045Z,26.95
2022-12-09T15:22:54.361Z,34.20
2022-12-09T15:28:02.312Z,32.58
2022-12-09T15:33:13.118Z,36.03
2022-12-09T15:38:15.744Z,37.38
2022-12-09T15:43:18.136Z,45.70
2022-12-09T15:48:24.350Z,38.30
2022-12-09T15:53:53.573Z,38.42
2022-12-09T15:59:01.924Z,37.45
2022-12-09T16:04:07.202Z,38.80
2022-12-09T16:09:14.732Z,42.55
2022-12-09T16:14:18.865Z,41.72
2022-12-09T16:19:39.332Z,56.50
2022-12-09T16:25:14.148Z,44.97
2022-12-09T16:30:21.384Z,44.30
2022-12-09T16:35:40.779Z,61.42
2022-12-09T16:40:46.371Z,49.67
2022-12-09T16:45:50.336Z,37.50
2022-12-09T16:51:13.145Z,53.85
2022-12-09T16:56:28.492Z,57.58
2022-12-09T17:01:35.726Z,68.13
2022-12-09T17:06:40.338Z,45.17
2022-12-09T17:11:48.529Z,53.40
2022-12-09T17:16:51.539Z,43.92
2022-12-09T17:21:55.251Z,41.78
2022-12-09T17:26:58.649Z,47.28
2022-12-09T17:32:01.029Z,43.65
2022-12-09T17:37:04.036Z,46.60
2022-12-09T17:42:06.533Z,63.25
2022-12-09T17:47:09.107Z,58.60
2022-12-09T17:52:11.728Z,68.93
2022-12-09T17:57:14.421Z,70.72
2022-12-09T18:02:16.991Z,60.75
2022-12-09T18:07:19.552Z,76.30
2022-12-09T18:12:22.355Z,102.00
2022-12-09T18:17:24.746Z,78.75
2022-12-09T18:22:27.326Z,79.70
2022-12-09T18:27:30.729Z,86.75
2022-12-09T18:32:36.165Z,84.05
2022-12-09T18:37:39.450Z,68.25
2022-12-09T18:42:41.858Z,56.60
2022-12-09T18:47:44.469Z,56.55
2022-12-09T18:52:47.823Z,45.47
2022-12-09T18:57:50.226Z,53.90
2022-12-09T19:02:52.670Z,60.05
2022-12-09T19:07:55.294Z,51.58
2022-12-09T19:12:57.977Z,58.40
2022-12-09T19:18:00.518Z,63.38
2022-12-09T19:23:03.935Z,56.72
2022-12-09T19:28:06.357Z,48.50
2022-12-09T19:33:08.955Z,63.50
2022-12-09T19:38:11.419Z,51.08
2022-12-09T19:43:14.209Z,43.30
2022-12-09T19:48:16.550Z,40.08
2022-12-09T19:53:19.145Z,51.63
2022-12-09T19:58:21.638Z,51.30
2022-12-09T20:03:25.234Z,59.90
2022-12-09T20:08:27.866Z,55.65
2022-12-09T20:13:32.184Z,46.72
2022-12-09T20:18:35.257Z,51.95
2022-12-09T20:23:39.982Z,53.65
2022-12-09T20:28:44.620Z,65.82
2022-12-09T20:33:47.535Z,87.13
2022-12-09T20:38:52.799Z,81.07
2022-12-09T20:43:57.545Z,77.82
2022-12-09T20:49:00.702Z,67.95
2022-12-09T20:54:05.847Z,64.43
2022-12-09T20:59:10.677Z,65.93
2022-12-09T21:04:13.678Z,78.47
2022-12-09T21:09:19.575Z,73.53
2022-12-09T21:14:22.318Z,76.00
2022-12-09T21:19:30.524Z,73.30
2022-12-09T21:24:33.861Z,80.72
2022-12-09T21:29:36.661Z,84.68
2022-12-09T21:34:39.318Z,94.72
2022-12-09T21:39:41.877Z,80.50
2022-12-09T21:44:44.702Z,90.63
2022-12-09T21:49:47.135Z,89.20
2022-12-09T21:54:55.220Z,91.88
2022-12-09T21:59:58.118Z,84.97
2022-12-09T22:05:00.590Z,79.13
2022-12-09T22:10:03.227Z,84.28
2022-12-09T22:15:07.756Z,83.10
2022-12-09T22:25:33.462Z,84.57
2022-12-09T22:30:37.016Z,67.65
2022-12-09T22:35:40.036Z,59.35
2022-12-09T22:40:43.484Z,53.28
2022-12-09T22:45:46.123Z,59.15
2022-12-09T22:50:48.864Z,50.15
2022-12-09T22:55:51.352Z,54.00
2022-12-09T23:00:54.970Z,57.92
2022-12-09T23:05:57.460Z,49.85
2022-12-09T23:11:13.597Z,61.28
2022-12-09T23:16:22.410Z,58.45
2022-12-09T23:21:36.501Z,61.08
2022-12-09T23:26:41.210Z,63.78
2022-12-09T23:31:44.379Z,55.22
2022-12-09T23:36:47.242Z,53.13
2022-12-09T23:41:49.759Z,50.92
2022-12-09T23:46:52.390Z,46.05
2022-12-09T23:51:54.959Z,55.47
2022-12-09T23:56:57.347Z,43.42
